Weather History for KBBB - September, 2013

Change the Weather History Date:

Tuesday, September 3, 2013

  Actual Average Record
Temperature  
Mean Temperature 63 °F -  
Max Temperature 80 °F 78 °F 94 °F (1960)
Min Temperature 46 °F 54 °F 30 °F (1974)
Degree Days  
Heating Degree Days 2    
Growing Degree Days 13 (Base 50)    
Moisture  
Dew Point 56 °F    
Average Humidity 78    
Maximum Humidity 100    
Minimum Humidity 45    
Precipitation  
Precipitation 0.00 in - - ()
Sea Level Pressure  
Sea Level Pressure 30.03 in    
Wind  
Wind Speed 5 mph (South)    
Max Wind Speed 10 mph    
Max Gust Speed -    
Visibility 10 miles    
Events      
Averages and records for this station are not official NWS values.
T = Trace of Precipitation, MM = Missing Value Source: NWS Daily Summary

Daily Weather History Graph

Daily Weather History Graph

Search for Another Location

Airport or City:

Trip Planner

Search our weather history database for the weather conditions in past years. The results will help you decide how hot, cold, wet, or windy it might be!

Date:

Astronomy

Sep. 03, 2013 Rise Set
Actual Time 6:46 AM CDT 7:55 PM CDT
Civil Twilight 6:16 AM CDT 8:26 PM CDT
Nautical Twilight 5:40 AM CDT 9:02 PM CDT
Astronomical Twilight 5:01 AM CDT 9:40 PM CDT
Moon 4:59 AM CDT (9/3) 6:44 PM CDT (9/3)
Length of Visible Light 14h 09m
Length of Day
13h 08m
Waning Crescent, 3% of the Moon is Illuminated
Sep 3
Waning Crescent
Sep 5
New
Sep 12
First Quarter
Sep 19
Full
Sep 26
Last Quarter

Hourly Weather History & Observations

Time (CDT) Temp. Windchill Dew Point Humidity Pressure Visibility Wind Dir Wind Speed Gust Speed Precip Events Conditions
12:13 AM 50.0 °F - 48.2 °F 94% 30.05 in 10.0 mi South 3.5 mph - N/A   Clear
12:32 AM 51.8 °F - 50.0 °F 94% 30.05 in 10.0 mi South 4.6 mph - N/A   Clear
12:52 AM 50.0 °F - 48.2 °F 94% 30.05 in 10.0 mi South 5.8 mph - N/A   Clear
1:13 AM 51.8 °F - 50.0 °F 94% 30.05 in 10.0 mi South 4.6 mph - N/A   Clear
1:32 AM 51.8 °F - 48.2 °F 88% 30.05 in 10.0 mi SSW 5.8 mph - N/A   Clear
1:52 AM 51.8 °F - 48.2 °F 88% 30.05 in 10.0 mi SSW 4.6 mph - N/A   Clear
2:13 AM 50.0 °F - 48.2 °F 94% 30.05 in 10.0 mi South 4.6 mph - N/A   Clear
2:32 AM 50.0 °F - 48.2 °F 94% 30.05 in 10.0 mi South 3.5 mph - N/A   Clear
2:53 AM 48.2 °F - 48.2 °F 100% 30.05 in 10.0 mi South 3.5 mph - N/A   Clear
3:13 AM 48.2 °F - 46.4 °F 93% 30.05 in 10.0 mi South 3.5 mph - N/A   Clear
3:32 AM 48.2 °F - 46.4 °F 93% 30.05 in 10.0 mi Calm Calm - N/A   Clear
3:53 AM 48.2 °F - 48.2 °F 100% 30.05 in 10.0 mi Calm Calm - N/A   Clear
4:13 AM 46.4 °F 45.2 °F 46.4 °F 100% 30.05 in 10.0 mi South 3.5 mph - N/A   Clear
4:32 AM 46.4 °F - 46.4 °F 100% 30.06 in 10.0 mi Calm Calm - N/A   Clear
4:53 AM 48.2 °F - 46.4 °F 93% 30.06 in 10.0 mi South 3.5 mph - N/A   Clear
5:13 AM 46.4 °F 45.2 °F 46.4 °F 100% 30.06 in 10.0 mi South 3.5 mph - N/A   Clear
5:32 AM 48.2 °F - 48.2 °F 100% 30.06 in 10.0 mi South 3.5 mph - N/A   Clear
5:53 AM 48.2 °F - 46.4 °F 93% 30.06 in 10.0 mi South 3.5 mph - N/A   Clear
6:12 AM 48.2 °F - 46.4 °F 93% 30.07 in 10.0 mi SSW 3.5 mph - N/A   Clear
6:32 AM 48.2 °F - 46.4 °F 93% 30.07 in 10.0 mi South 4.6 mph - N/A   Clear
6:53 AM 48.2 °F - 48.2 °F 100% 30.07 in 10.0 mi South 5.8 mph - N/A   Clear
7:12 AM 50.0 °F - 48.2 °F 94% 30.06 in 10.0 mi South 4.6 mph - N/A   Clear
7:32 AM 51.8 °F - 48.2 °F 88% 30.07 in 10.0 mi South 4.6 mph - N/A   Clear
7:53 AM 51.8 °F - 50.0 °F 94% 30.06 in 10.0 mi South 5.8 mph - N/A   Clear
8:12 AM 51.8 °F - 51.8 °F 100% 30.06 in 10.0 mi South 5.8 mph - N/A   Clear
8:32 AM 55.4 °F - 53.6 °F 94% 30.06 in 10.0 mi South 5.8 mph - N/A   Clear
8:53 AM 57.2 °F - 53.6 °F 88% 30.06 in 10.0 mi SSW 6.9 mph - N/A   Clear
9:12 AM 57.2 °F - 55.4 °F 94% 30.06 in 10.0 mi South 5.8 mph - N/A   Clear
9:32 AM 59.0 °F - 55.4 °F 88% 30.06 in 10.0 mi SSW 4.6 mph - N/A   Clear
9:53 AM 60.8 °F - 55.4 °F 82% 30.06 in 10.0 mi South 5.8 mph - N/A   Clear
10:12 AM 64.4 °F - 55.4 °F 73% 30.06 in 10.0 mi South 5.8 mph - N/A   Clear
10:32 AM 66.2 °F - 55.4 °F 68% 30.06 in 10.0 mi SW 6.9 mph - N/A   Clear
10:53 AM 66.2 °F - 57.2 °F 73% 30.06 in 10.0 mi SSW 6.9 mph - N/A   Clear
11:12 AM 68.0 °F - 57.2 °F 68% 30.06 in 10.0 mi SSW 5.8 mph - N/A   Clear
11:32 AM 69.8 °F - 57.2 °F 64% 30.06 in 10.0 mi South 4.6 mph - N/A   Clear
11:53 AM 71.6 °F - 59.0 °F 64% 30.05 in 10.0 mi SSE 5.8 mph - N/A   Clear
12:12 PM 71.6 °F - 60.8 °F 69% 30.05 in 10.0 mi South 5.8 mph - N/A   Clear
12:33 PM 71.6 °F - 60.8 °F 69% 30.04 in 10.0 mi South 6.9 mph - N/A   Clear
12:52 PM 75.2 °F - 60.8 °F 61% 30.04 in 10.0 mi South 6.9 mph - N/A   Clear
1:12 PM 75.2 °F - 59.0 °F 57% 30.03 in 10.0 mi South 6.9 mph - N/A   Clear
1:33 PM 77.0 °F - 57.2 °F 50% 30.03 in 10.0 mi SSW 5.8 mph - N/A   Clear
1:53 PM 78.8 °F - 59.0 °F 51% 30.03 in 10.0 mi SSW 10.4 mph - N/A   Clear
2:12 PM 78.8 °F - 57.2 °F 47% 30.02 in 10.0 mi SW 5.8 mph - N/A   Clear
2:33 PM 78.8 °F - 57.2 °F 47% 30.02 in 10.0 mi SW 6.9 mph - N/A   Clear
2:52 PM 80.6 °F - 57.2 °F 45% 30.01 in 10.0 mi SW 10.4 mph - N/A   Clear
3:12 PM 78.8 °F - 57.2 °F 47% 30.00 in 10.0 mi SSW 8.1 mph - N/A   Clear
3:33 PM 77.0 °F - 60.8 °F 57% 30.00 in 10.0 mi SSW 9.2 mph - N/A   Clear
3:52 PM 77.0 °F - 59.0 °F 54% 29.99 in 10.0 mi SW 8.1 mph - N/A   Clear
4:12 PM 78.8 °F - 60.8 °F 54% 29.99 in 10.0 mi SW 5.8 mph - N/A   Clear
4:33 PM 78.8 °F - 60.8 °F 54% 30.00 in 10.0 mi SW 4.6 mph - N/A   Clear
4:52 PM 78.8 °F - 60.8 °F 54% 29.99 in 10.0 mi SSW 6.9 mph - N/A   Clear
5:12 PM 78.8 °F - 60.8 °F 54% 30.00 in 10.0 mi South 5.8 mph - N/A   Clear
5:33 PM 78.8 °F - 60.8 °F 54% 30.00 in 10.0 mi SSW 5.8 mph - N/A   Clear
5:52 PM 78.8 °F - 62.6 °F 57% 29.99 in 10.0 mi SSW 8.1 mph - N/A   Clear
6:12 PM 78.8 °F - 62.6 °F 57% 29.99 in 10.0 mi South 5.8 mph - N/A   Clear
6:33 PM 77.0 °F - 62.6 °F 61% 29.99 in 10.0 mi South 5.8 mph - N/A   Clear
6:52 PM 75.2 °F - 62.6 °F 65% 29.99 in 10.0 mi South 5.8 mph - N/A   Clear
7:13 PM 75.2 °F - 64.4 °F 69% 29.99 in 10.0 mi South 3.5 mph - N/A   Clear
7:32 PM 73.4 °F - 64.4 °F 73% 29.99 in 10.0 mi South 3.5 mph - N/A   Clear
7:52 PM 71.6 °F - 64.4 °F 78% 30.00 in 10.0 mi SSE 4.6 mph - N/A   Clear
8:13 PM 71.6 °F - 62.6 °F 73% 30.00 in 10.0 mi South 5.8 mph - N/A   Clear
8:33 PM 69.8 °F - 62.6 °F 78% 30.00 in 10.0 mi South 4.6 mph - N/A   Clear
8:52 PM 69.8 °F - 62.6 °F 78% 30.00 in 10.0 mi South 4.6 mph - N/A   Clear
9:13 PM 69.8 °F - 62.6 °F 78% 30.00 in 10.0 mi South 5.8 mph - N/A   Clear
9:32 PM 69.8 °F - 62.6 °F 78% 30.00 in 10.0 mi South 4.6 mph - N/A   Clear
9:52 PM 68.0 °F - 62.6 °F 83% 30.00 in 10.0 mi South 5.8 mph - N/A   Clear
10:13 PM 66.2 °F - 60.8 °F 83% 30.00 in 10.0 mi South 4.6 mph - N/A   Clear
10:32 PM 68.0 °F - 60.8 °F 78% 30.01 in 10.0 mi South 4.6 mph - N/A   Clear
10:52 PM 66.2 °F - 60.8 °F 83% 30.01 in 10.0 mi SSE 3.5 mph - N/A   Clear
11:13 PM 66.2 °F - 60.8 °F 83% 30.01 in 10.0 mi South 3.5 mph - N/A   Clear
11:32 PM 64.4 °F - 60.8 °F 88% 30.02 in 10.0 mi Calm Calm - N/A   Clear
11:53 PM 64.4 °F - 60.8 °F 88% 30.01 in 10.0 mi South 3.5 mph - N/A   Clear